createdAt,value
2022-09-17T00:02:28.366Z,80.30
2022-09-17T00:04:59.102Z,80.80
2022-09-17T00:07:30.875Z,77.70
2022-09-17T00:10:01.541Z,78.60
2022-09-17T00:12:33.667Z,76.50
2022-09-17T00:15:03.908Z,76.70
2022-09-17T00:17:34.108Z,76.50
2022-09-17T00:20:04.896Z,74.30
2022-09-17T00:22:35.128Z,74.20
2022-09-17T00:25:06.149Z,74.50
2022-09-17T00:27:37.600Z,72.30
2022-09-17T00:30:08.331Z,71.70
2022-09-17T00:32:38.595Z,72.50
2022-09-17T00:35:09.327Z,72.60
2022-09-17T00:37:39.683Z,72.50
2022-09-17T00:40:11.128Z,73.30
2022-09-17T00:42:41.650Z,72.00
2022-09-17T00:45:12.880Z,71.60
2022-09-17T00:48:06.267Z,73.10
2022-09-17T00:50:47.719Z,73.40
2022-09-17T00:53:22.148Z,74.40
2022-09-17T00:56:10.554Z,72.80
2022-09-17T00:58:41.729Z,72.70
2022-09-17T01:01:11.994Z,72.10
2022-09-17T01:03:42.162Z,72.70
2022-09-17T01:06:20.416Z,72.40
2022-09-17T01:09:23.507Z,69.90
2022-09-17T01:12:04.055Z,70.50
2022-09-17T01:14:59.102Z,70.40
2022-09-17T01:18:14.542Z,69.90
2022-09-17T01:21:11.110Z,70.80
2022-09-17T01:24:03.903Z,69.00
2022-09-17T01:26:49.579Z,69.70
2022-09-17T01:29:58.434Z,69.50
2022-09-17T01:32:41.434Z,67.20
2022-09-17T01:35:40.300Z,68.00
2022-09-17T01:38:46.104Z,67.00
2022-09-17T01:41:36.110Z,66.30
2022-09-17T01:44:19.301Z,66.50
2022-09-17T01:46:55.607Z,68.70
2022-09-17T01:49:27.891Z,69.80
2022-09-17T01:51:58.289Z,70.30
2022-09-17T01:54:39.189Z,69.80
2022-09-17T01:57:30.288Z,70.80
2022-09-17T02:00:13.779Z,70.30
2022-09-17T02:03:14.936Z,68.50
2022-09-17T02:05:55.667Z,68.90
2022-09-17T02:08:44.303Z,70.10
2022-09-17T02:11:19.851Z,69.80
2022-09-17T02:13:53.237Z,70.70
2022-09-17T02:16:27.202Z,69.90
2022-09-17T02:19:14.784Z,68.20
2022-09-17T02:22:11.655Z,67.10
2022-09-17T02:24:52.391Z,69.30
2022-09-17T02:27:29.849Z,70.50
2022-09-17T02:30:00.207Z,71.60
2022-09-17T02:32:31.363Z,72.10
2022-09-17T02:35:01.619Z,71.30
2022-09-17T02:37:32.136Z,72.20
2022-09-17T02:40:02.811Z,73.40
2022-09-17T02:42:51.233Z,73.90
2022-09-17T02:45:34.907Z,74.30
2022-09-17T02:48:08.675Z,75.80
2022-09-17T02:50:50.825Z,78.30
2022-09-17T02:53:31.027Z,78.90
2022-09-17T02:56:12.988Z,80.50
2022-09-17T02:59:14.295Z,79.90
2022-09-17T03:01:52.926Z,79.50
2022-09-17T03:04:27.313Z,80.10
2022-09-17T03:06:59.810Z,81.70
2022-09-17T03:09:30.619Z,79.50
2022-09-17T03:12:01.281Z,79.70
2022-09-17T03:14:31.697Z,79.00
2022-09-17T03:17:01.907Z,78.70
2022-09-17T03:19:32.102Z,79.20
2022-09-17T03:22:02.341Z,80.50
2022-09-17T03:24:32.927Z,80.80
2022-09-17T03:27:03.086Z,79.80
2022-09-17T03:29:33.590Z,79.70
2022-09-17T03:32:03.919Z,80.20
2022-09-17T03:34:34.579Z,76.10
2022-09-17T03:37:04.801Z,76.60
2022-09-17T03:39:35.304Z,75.10
2022-09-17T03:42:05.602Z,79.40
2022-09-17T03:44:35.974Z,78.80
2022-09-17T03:47:06.530Z,78.70
2022-09-17T03:49:37.772Z,78.30
2022-09-17T03:52:08.022Z,77.90
2022-09-17T03:54:38.205Z,77.60
2022-09-17T03:57:08.363Z,79.30
2022-09-17T03:59:39.130Z,78.70
2022-09-17T04:02:11.289Z,78.70
2022-09-17T04:04:41.515Z,78.40
2022-09-17T04:07:13.341Z,82.20
2022-09-17T04:09:44.185Z,82.70
2022-09-17T04:12:14.773Z,80.30
2022-09-17T04:14:45.833Z,79.70
2022-09-17T04:17:20.239Z,75.10
2022-09-17T04:19:50.956Z,72.70
2022-09-17T04:22:22.555Z,73.30
2022-09-17T04:24:52.844Z,73.90
2022-09-17T04:27:23.125Z,74.20
2022-09-17T04:29:53.425Z,71.10
2022-09-17T04:35:10.911Z,70.10
2022-09-17T04:37:41.433Z,68.80
2022-09-17T04:40:12.698Z,69.60
2022-09-17T04:42:43.082Z,68.90
2022-09-17T04:45:14.674Z,67.50
2022-09-17T04:47:44.913Z,69.50
2022-09-17T04:50:15.166Z,68.00
2022-09-17T04:52:46.424Z,65.60
2022-09-17T04:55:18.651Z,65.70
2022-09-17T04:57:53.812Z,64.40
2022-09-17T05:00:25.934Z,65.50
2022-09-17T05:02:58.146Z,66.40
2022-09-17T05:05:28.574Z,66.60
2022-09-17T05:07:58.751Z,67.30
2022-09-17T05:10:29.245Z,66.40
2022-09-17T05:13:00.502Z,66.30
2022-09-17T05:15:33.211Z,67.10
2022-09-17T05:18:04.156Z,67.20
2022-09-17T05:20:34.845Z,66.40
2022-09-17T05:23:05.097Z,66.50
2022-09-17T05:25:36.678Z,66.40
2022-09-17T05:28:09.227Z,66.70
2022-09-17T05:30:40.114Z,66.60
2022-09-17T05:33:10.712Z,68.10
2022-09-17T05:35:41.347Z,67.50
2022-09-17T05:38:15.493Z,67.10
2022-09-17T05:40:45.766Z,68.10
2022-09-17T05:43:15.945Z,68.50
2022-09-17T05:45:46.674Z,68.10
2022-09-17T05:48:18.512Z,69.30
2022-09-17T05:50:49.279Z,70.40
2022-09-17T05:53:20.822Z,72.20
2022-09-17T05:55:53.900Z,72.90
2022-09-17T05:58:24.264Z,73.20
2022-09-17T06:00:55.049Z,73.10
2022-09-17T06:03:25.658Z,73.30
2022-09-17T06:05:59.775Z,74.00
2022-09-17T06:08:33.952Z,73.50
2022-09-17T06:11:08.049Z,74.20
2022-09-17T06:13:39.794Z,72.90
2022-09-17T06:16:10.353Z,74.10
2022-09-17T06:18:40.502Z,74.40
2022-09-17T06:21:11.453Z,73.80
2022-09-17T06:23:41.748Z,74.40
2022-09-17T06:26:12.790Z,75.20
2022-09-17T06:28:43.441Z,75.20
2022-09-17T06:31:15.630Z,76.60
2022-09-17T06:33:45.900Z,75.20
2022-09-17T06:36:16.338Z,75.20
2022-09-17T06:38:47.186Z,75.70
2022-09-17T06:41:18.652Z,75.60
2022-09-17T06:43:49.283Z,75.60
2022-09-17T06:46:19.682Z,76.70
2022-09-17T06:48:50.038Z,76.00
2022-09-17T06:51:20.481Z,76.10
2022-09-17T06:53:50.904Z,75.60
2022-09-17T06:56:21.562Z,76.20
2022-09-17T06:58:52.304Z,76.90
2022-09-17T07:01:22.810Z,77.80
2022-09-17T07:03:53.050Z,77.50
2022-09-17T07:06:24.011Z,77.80
2022-09-17T07:08:54.590Z,79.40
2022-09-17T07:11:24.894Z,81.20
2022-09-17T07:13:55.111Z,82.40
2022-09-17T07:16:25.738Z,83.50
2022-09-17T07:18:56.434Z,84.30
2022-09-17T07:21:26.828Z,85.10
2022-09-17T07:23:56.984Z,84.50
2022-09-17T07:26:27.971Z,84.70
2022-09-17T07:28:59.922Z,83.30
2022-09-17T07:31:30.305Z,84.20
2022-09-17T07:34:01.237Z,84.20
2022-09-17T07:36:32.193Z,84.40
2022-09-17T07:39:02.546Z,84.30
2022-09-17T07:41:34.958Z,84.10
2022-09-17T07:44:05.456Z,84.60
2022-09-17T07:46:36.215Z,84.30
2022-09-17T07:49:06.458Z,83.80
2022-09-17T07:51:36.627Z,83.20
2022-09-17T07:54:07.898Z,83.60
2022-09-17T07:56:38.285Z,83.10
2022-09-17T07:59:08.617Z,83.50
2022-09-17T08:01:39.527Z,83.60
2022-09-17T08:04:11.081Z,83.40
2022-09-17T08:06:43.914Z,84.40
2022-09-17T08:09:14.473Z,84.20
2022-09-17T08:12:01.397Z,83.90
2022-09-17T08:14:32.120Z,85.10
2022-09-17T08:17:02.981Z,85.20
2022-09-17T08:19:37.672Z,86.00
2022-09-17T08:22:08.005Z,86.90
2022-09-17T08:24:38.156Z,86.80
2022-09-17T08:27:08.935Z,87.10
2022-09-17T08:29:39.218Z,87.50
2022-09-17T08:32:09.538Z,87.90
2022-09-17T08:34:40.799Z,88.50
2022-09-17T08:37:10.986Z,88.40
2022-09-17T08:39:41.240Z,88.50
2022-09-17T08:42:14.708Z,89.10
2022-09-17T08:44:51.833Z,88.90
2022-09-17T08:47:37.978Z,89.00
2022-09-17T08:50:15.168Z,89.50
2022-09-17T08:53:01.243Z,89.40
2022-09-17T08:55:40.277Z,89.00
2022-09-17T08:58:40.946Z,88.90
2022-09-17T09:01:19.706Z,89.70
2022-09-17T09:04:01.959Z,89.00
2022-09-17T09:06:49.094Z,89.20
2022-09-17T09:09:22.824Z,89.70
2022-09-17T09:12:00.393Z,90.00
2022-09-17T09:14:44.570Z,90.30
2022-09-17T09:17:14.765Z,90.20
2022-09-17T09:19:50.826Z,90.10
2022-09-17T09:22:52.845Z,90.10
2022-09-17T09:25:35.628Z,90.40
2022-09-17T09:28:38.695Z,91.00
2022-09-17T09:31:25.109Z,90.70
2022-09-17T09:33:56.510Z,90.70
2022-09-17T09:36:31.755Z,90.50
2022-09-17T09:39:20.462Z,90.20
2022-09-17T09:42:29.629Z,90.80
2022-09-17T09:45:14.431Z,91.20
2022-09-17T09:48:00.823Z,91.20
2022-09-17T09:51:07.445Z,91.80
2022-09-17T09:53:53.147Z,92.50
2022-09-17T09:56:32.949Z,92.40
2022-09-17T09:59:04.139Z,92.70
2022-09-17T10:01:36.407Z,92.40
2022-09-17T10:04:36.822Z,92.70
2022-09-17T10:07:14.363Z,93.00
2022-09-17T10:09:49.355Z,92.70
2022-09-17T10:12:20.870Z,92.60
2022-09-17T10:14:51.041Z,92.30
2022-09-17T10:17:29.614Z,92.30
2022-09-17T10:20:03.443Z,92.40
2022-09-17T10:22:42.248Z,92.20
2022-09-17T10:25:31.684Z,92.20
2022-09-17T10:28:08.069Z,92.20
2022-09-17T10:30:39.212Z,92.30
2022-09-17T10:33:31.545Z,92.90
2022-09-17T10:36:16.382Z,92.60
2022-09-17T10:38:49.698Z,92.90
2022-09-17T10:41:29.730Z,93.10
2022-09-17T10:44:08.503Z,93.60
2022-09-17T10:46:41.864Z,93.90
2022-09-17T10:49:40.901Z,94.00
2022-09-17T10:52:25.031Z,94.10
2022-09-17T10:55:04.185Z,94.10
2022-09-17T10:58:12.494Z,94.30
2022-09-17T11:01:00.852Z,94.40
2022-09-17T11:03:43.490Z,94.60
2022-09-17T11:06:53.345Z,94.80
2022-09-17T11:09:56.650Z,95.20
2022-09-17T11:12:39.817Z,95.10
2022-09-17T11:15:19.551Z,95.30
2022-09-17T11:17:56.021Z,95.60
2022-09-17T11:20:41.287Z,95.80
2022-09-17T11:23:14.310Z,96.30
2022-09-17T11:26:13.843Z,95.80
2022-09-17T11:29:04.849Z,94.70
2022-09-17T11:31:50.103Z,95.10
2022-09-17T11:34:36.187Z,95.30
2022-09-17T11:37:12.969Z,95.80
2022-09-17T11:40:15.625Z,96.00
2022-09-17T11:43:04.750Z,96.30
2022-09-17T11:45:42.701Z,96.30
2022-09-17T11:48:19.516Z,96.30
2022-09-17T11:50:55.287Z,96.70
2022-09-17T11:53:35.201Z,96.70
2022-09-17T11:56:33.439Z,96.40
2022-09-17T11:59:21.801Z,96.40
2022-09-17T12:02:04.374Z,97.00
2022-09-17T12:04:42.682Z,96.50
2022-09-17T12:07:44.749Z,96.50
2022-09-17T12:10:43.715Z,96.60
2022-09-17T12:13:38.926Z,96.60
2022-09-17T12:16:26.867Z,96.70
2022-09-17T12:19:09.583Z,96.80
2022-09-17T12:22:07.072Z,96.70
2022-09-17T12:24:38.811Z,96.70
2022-09-17T12:27:40.552Z,96.90
2022-09-17T12:30:19.257Z,96.90
2022-09-17T12:33:18.262Z,96.50
2022-09-17T12:36:17.532Z,96.40
2022-09-17T12:39:13.295Z,96.60
2022-09-17T12:42:14.879Z,96.20
2022-09-17T12:44:57.553Z,95.90
2022-09-17T12:47:54.754Z,96.00
2022-09-17T12:50:58.352Z,96.10
2022-09-17T12:53:40.696Z,96.20
2022-09-17T12:56:19.931Z,96.00
2022-09-17T12:58:58.801Z,96.20
2022-09-17T13:01:54.906Z,95.90
2022-09-17T13:05:04.129Z,95.60
2022-09-17T13:07:54.317Z,95.40
2022-09-17T13:10:43.295Z,95.80
2022-09-17T13:13:37.080Z,96.10
2022-09-17T13:16:45.630Z,96.20
2022-09-17T13:19:33.771Z,96.30
2022-09-17T13:22:22.866Z,96.50
2022-09-17T13:25:07.538Z,96.70
2022-09-17T13:27:43.448Z,96.90
2022-09-17T13:30:17.485Z,97.10
2022-09-17T13:32:52.197Z,97.20
2022-09-17T13:35:25.079Z,97.00
2022-09-17T13:38:00.425Z,97.00
2022-09-17T13:40:39.551Z,96.90
2022-09-17T13:43:15.555Z,96.80
2022-09-17T13:46:06.643Z,96.60
2022-09-17T13:48:39.173Z,96.60
2022-09-17T13:51:36.533Z,96.50
2022-09-17T13:54:12.352Z,96.70
2022-09-17T13:56:45.017Z,96.60
2022-09-17T13:59:23.408Z,96.30
2022-09-17T14:01:54.249Z,96.30
2022-09-17T14:04:42.721Z,96.40
2022-09-17T14:07:31.329Z,96.30
2022-09-17T14:10:03.369Z,96.40
2022-09-17T14:12:48.051Z,96.40
2022-09-17T14:15:57.305Z,96.30
2022-09-17T14:18:31.040Z,96.40
2022-09-17T14:21:27.268Z,96.40
2022-09-17T14:24:06.879Z,96.30
2022-09-17T14:27:14.083Z,96.40
2022-09-17T14:29:55.964Z,96.50
2022-09-17T14:32:46.529Z,96.40
2022-09-17T14:35:22.347Z,96.60
2022-09-17T14:38:04.872Z,96.50
2022-09-17T14:40:36.962Z,95.70
2022-09-17T14:43:07.716Z,95.90
2022-09-17T14:45:45.113Z,95.80
2022-09-17T14:48:36.495Z,95.70
2022-09-17T14:51:22.211Z,95.70
2022-09-17T14:54:16.178Z,95.40
2022-09-17T14:57:12.633Z,95.30
2022-09-17T15:00:00.020Z,95.20
2022-09-17T15:02:45.096Z,95.30
2022-09-17T15:05:30.167Z,95.30
2022-09-17T15:08:30.789Z,94.90
2022-09-17T15:11:02.185Z,95.10
2022-09-17T15:13:43.947Z,95.10
2022-09-17T15:16:25.612Z,95.30
2022-09-17T15:18:59.764Z,95.20
2022-09-17T15:21:39.455Z,95.10
2022-09-17T15:24:22.236Z,95.20
2022-09-17T15:27:25.369Z,94.90
2022-09-17T15:30:16.655Z,95.10
2022-09-17T15:33:11.301Z,94.60
2022-09-17T15:35:42.725Z,94.70
2022-09-17T15:38:34.677Z,94.80
2022-09-17T15:41:22.934Z,94.90
2022-09-17T15:44:03.767Z,94.50
2022-09-17T15:46:43.849Z,94.80
2022-09-17T15:49:32.731Z,95.10
2022-09-17T15:52:35.960Z,94.70
2022-09-17T15:55:07.858Z,94.30
2022-09-17T15:57:39.019Z,94.00
2022-09-17T16:00:17.019Z,94.30
2022-09-17T16:02:47.482Z,94.40
2022-09-17T16:05:21.101Z,94.20
2022-09-17T16:07:52.666Z,94.60
2022-09-17T16:10:22.925Z,94.30
2022-09-17T16:12:53.687Z,94.40
2022-09-17T16:15:24.039Z,94.40
2022-09-17T16:17:54.588Z,94.00
2022-09-17T16:20:28.288Z,93.50
2022-09-17T16:22:59.427Z,93.50
2022-09-17T16:25:31.295Z,93.30
2022-09-17T16:28:12.593Z,92.90
2022-09-17T16:30:47.101Z,92.90
2022-09-17T16:33:19.444Z,92.40
2022-09-17T16:35:50.104Z,92.50
2022-09-17T16:38:29.135Z,92.60
2022-09-17T16:41:02.499Z,92.70
2022-09-17T16:43:32.752Z,92.70
2022-09-17T16:46:08.683Z,92.90
2022-09-17T16:48:40.058Z,92.70
2022-09-17T16:51:11.468Z,93.20
2022-09-17T16:53:42.520Z,93.10
2022-09-17T16:56:15.525Z,93.10
2022-09-17T16:58:47.731Z,93.20
2022-09-17T17:01:19.541Z,92.70
2022-09-17T17:03:52.849Z,92.90
2022-09-17T17:06:24.395Z,92.80
2022-09-17T17:08:55.682Z,92.50
2022-09-17T17:11:25.865Z,92.70
2022-09-17T17:14:00.717Z,93.00
2022-09-17T17:16:31.082Z,92.80
2022-09-17T17:19:02.235Z,92.70
2022-09-17T17:21:32.918Z,92.70
2022-09-17T17:24:03.476Z,91.80
2022-09-17T17:26:33.911Z,92.30
2022-09-17T17:29:04.480Z,92.60
2022-09-17T17:31:35.147Z,92.80
2022-09-17T17:34:05.947Z,92.70
2022-09-17T17:36:37.020Z,93.00
2022-09-17T17:39:07.604Z,93.10
2022-09-17T17:41:39.035Z,93.00
2022-09-17T17:44:10.689Z,93.00
2022-09-17T17:46:45.035Z,93.10
2022-09-17T17:49:15.529Z,93.20
2022-09-17T17:51:46.716Z,93.20
2022-09-17T17:54:18.528Z,93.00
2022-09-17T17:56:48.883Z,93.00
2022-09-17T17:59:19.129Z,93.60
2022-09-17T18:01:49.392Z,92.60
2022-09-17T18:04:21.284Z,93.30
2022-09-17T18:06:52.217Z,92.40
2022-09-17T18:09:22.477Z,92.70
2022-09-17T18:11:52.645Z,92.60
2022-09-17T18:14:23.256Z,92.70
2022-09-17T18:16:53.857Z,93.00
2022-09-17T18:19:24.209Z,92.70
2022-09-17T18:21:57.011Z,92.70
2022-09-17T18:24:27.210Z,92.70
2022-09-17T18:26:57.333Z,92.70
2022-09-17T18:29:27.587Z,92.30
2022-09-17T18:31:58.217Z,92.20
2022-09-17T18:34:28.505Z,92.10
2022-09-17T18:36:58.640Z,92.50
2022-09-17T18:42:21.116Z,92.10
2022-09-17T18:44:52.734Z,92.20
2022-09-17T18:47:23.359Z,92.20
2022-09-17T18:49:54.093Z,92.10
2022-09-17T18:52:24.250Z,91.80
2022-09-17T18:54:56.794Z,92.30
2022-09-17T18:57:27.131Z,92.40
2022-09-17T18:59:59.795Z,91.70
2022-09-17T19:02:30.351Z,92.10
2022-09-17T19:05:00.546Z,92.00
2022-09-17T19:07:30.696Z,91.80
2022-09-17T19:10:03.381Z,92.00
2022-09-17T19:12:35.243Z,92.00
2022-09-17T19:15:07.188Z,92.10
2022-09-17T19:17:38.652Z,92.30
2022-09-17T19:20:09.454Z,92.60
2022-09-17T19:22:40.302Z,92.20
2022-09-17T19:25:11.134Z,92.50
2022-09-17T19:27:41.880Z,92.60
2022-09-17T19:30:12.989Z,92.60
2022-09-17T19:32:47.546Z,92.60
2022-09-17T19:35:19.999Z,92.60
2022-09-17T19:37:50.115Z,92.90
2022-09-17T19:40:21.271Z,92.80
2022-09-17T19:42:59.991Z,92.60
2022-09-17T19:45:30.883Z,92.60
2022-09-17T19:48:04.727Z,92.80
2022-09-17T19:50:35.000Z,92.70
2022-09-17T19:53:05.547Z,92.40
2022-09-17T19:55:35.755Z,92.80
2022-09-17T19:58:06.706Z,92.60
2022-09-17T20:00:38.919Z,92.60
2022-09-17T20:03:10.684Z,92.70
2022-09-17T20:05:41.117Z,92.60
2022-09-17T20:08:12.189Z,92.80
2022-09-17T20:10:44.208Z,92.70
2022-09-17T20:13:15.993Z,92.80
2022-09-17T20:15:46.490Z,92.90
2022-09-17T20:18:19.915Z,93.40
2022-09-17T20:20:53.424Z,93.00
2022-09-17T20:23:23.664Z,92.60
2022-09-17T20:25:56.997Z,92.30
2022-09-17T20:28:27.185Z,92.40
2022-09-17T20:31:09.196Z,92.30
2022-09-17T20:33:39.493Z,92.30
2022-09-17T20:36:20.717Z,92.60
2022-09-17T20:41:43.887Z,92.30
2022-09-17T20:44:14.204Z,92.20
2022-09-17T20:46:44.868Z,92.40
2022-09-17T20:49:15.053Z,92.60
2022-09-17T20:51:46.028Z,92.70
2022-09-17T20:54:16.607Z,92.60
2022-09-17T20:56:46.947Z,92.00
2022-09-17T20:59:20.705Z,92.30
2022-09-17T21:01:52.057Z,92.40
2022-09-17T21:04:23.804Z,92.60
2022-09-17T21:06:57.363Z,92.70
2022-09-17T21:09:28.006Z,92.50
2022-09-17T21:12:00.405Z,92.40
2022-09-17T21:14:30.543Z,92.70
2022-09-17T21:17:00.788Z,92.20
2022-09-17T21:19:31.204Z,91.40
2022-09-17T21:22:01.546Z,91.60
2022-09-17T21:24:31.750Z,92.10
2022-09-17T21:27:02.049Z,92.30
2022-09-17T21:29:33.681Z,92.40
2022-09-17T21:32:04.051Z,92.30
2022-09-17T21:34:34.728Z,92.60
2022-09-17T21:37:08.145Z,93.00
2022-09-17T21:39:40.048Z,92.60
2022-09-17T21:42:11.718Z,92.40
2022-09-17T21:44:43.488Z,92.50
2022-09-17T21:47:13.838Z,92.10
2022-09-17T21:49:46.017Z,92.00
2022-09-17T21:52:17.871Z,92.10
2022-09-17T21:54:48.888Z,92.10
2022-09-17T21:57:19.920Z,91.20
2022-09-17T21:59:51.805Z,91.90
2022-09-17T22:02:22.103Z,92.20
2022-09-17T22:04:53.875Z,91.70
2022-09-17T22:07:26.526Z,91.70
2022-09-17T22:09:58.060Z,91.40
2022-09-17T22:12:49.896Z,91.10
2022-09-17T22:15:39.392Z,91.00
2022-09-17T22:18:28.554Z,90.70
2022-09-17T22:21:00.738Z,90.70
2022-09-17T22:23:31.445Z,90.50
2022-09-17T22:26:08.824Z,90.90
2022-09-17T22:28:40.733Z,90.40
2022-09-17T22:31:15.333Z,90.80
2022-09-17T22:33:48.264Z,91.10
2022-09-17T22:36:21.480Z,90.90
2022-09-17T22:38:57.443Z,90.90
2022-09-17T22:41:36.817Z,90.50
2022-09-17T22:44:13.180Z,90.40
2022-09-17T22:46:44.226Z,90.50
2022-09-17T22:49:14.682Z,90.30
2022-09-17T22:51:46.767Z,90.20
2022-09-17T22:54:19.440Z,90.20
2022-09-17T22:56:51.224Z,89.10
2022-09-17T22:59:24.391Z,87.10
2022-09-17T23:01:54.984Z,87.70
2022-09-17T23:04:25.252Z,88.20
2022-09-17T23:06:55.417Z,88.00
2022-09-17T23:09:26.129Z,86.50
2022-09-17T23:11:56.371Z,86.50
2022-09-17T23:14:26.719Z,86.10
2022-09-17T23:16:57.988Z,85.30
2022-09-17T23:19:28.551Z,85.60
2022-09-17T23:21:59.024Z,85.30
2022-09-17T23:24:29.283Z,85.70
2022-09-17T23:26:59.882Z,85.20
2022-09-17T23:29:30.496Z,85.90
2022-09-17T23:32:00.846Z,86.90
2022-09-17T23:34:31.482Z,86.30
2022-09-17T23:37:01.988Z,84.60
2022-09-17T23:39:32.649Z,86.60
2022-09-17T23:42:04.082Z,85.90
2022-09-17T23:44:34.542Z,86.40
2022-09-17T23:47:05.191Z,85.40
2022-09-17T23:49:35.809Z,85.10
2022-09-17T23:52:06.839Z,84.10
2022-09-17T23:54:37.163Z,83.00
2022-09-17T23:57:07.915Z,82.80
2022-09-17T23:59:38.549Z,81.20
